createdAt,value
2022-08-31T00:01:07.943Z,100993.63
2022-08-31T00:03:53.010Z,100991.06
2022-08-31T00:06:20.909Z,100955.50
2022-08-31T00:08:48.642Z,100992.06
2022-08-31T00:11:18.632Z,100992.88
2022-08-31T00:13:46.540Z,100989.59
2022-08-31T00:16:14.364Z,100990.69
2022-08-31T00:18:42.167Z,100995.13
2022-08-31T00:21:09.865Z,100995.13
2022-08-31T00:23:37.661Z,100999.63
2022-08-31T00:26:05.447Z,100992.56
2022-08-31T00:28:34.543Z,101003.31
2022-08-31T00:31:02.278Z,101005.25
2022-08-31T00:33:30.106Z,100994.75
2022-08-31T00:35:58.689Z,100997.56
2022-08-31T00:38:26.420Z,100985.69
2022-08-31T00:40:54.159Z,100994.88
2022-08-31T00:43:46.100Z,101001.00
2022-08-31T00:46:16.876Z,100995.00
2022-08-31T00:48:46.617Z,101001.25
2022-08-31T00:51:15.275Z,100960.56
2022-08-31T00:53:48.089Z,101007.72
2022-08-31T00:56:18.719Z,101003.31
2022-08-31T00:58:48.921Z,101001.63
2022-08-31T01:01:22.859Z,101002.56
2022-08-31T01:03:50.674Z,100999.88
2022-08-31T01:06:18.722Z,101006.25
2022-08-31T01:08:46.475Z,100896.88
2022-08-31T01:11:14.259Z,101004.69
2022-08-31T01:13:42.021Z,101003.81
2022-08-31T01:16:13.169Z,100982.53
2022-08-31T01:18:40.938Z,100957.38
2022-08-31T01:21:17.480Z,100961.19
2022-08-31T01:23:46.652Z,100949.56
2022-08-31T01:26:16.918Z,101007.00
2022-08-31T01:28:44.760Z,100999.91
2022-08-31T01:31:17.066Z,101002.47
2022-08-31T01:33:44.819Z,101001.75
2022-08-31T01:36:15.986Z,101002.72
2022-08-31T01:38:44.187Z,101003.81
2022-08-31T01:41:14.335Z,101004.69
2022-08-31T01:43:42.260Z,101011.03
2022-08-31T01:46:12.578Z,101005.78
2022-08-31T01:48:41.583Z,100995.41
2022-08-31T01:51:10.796Z,100986.09
2022-08-31T01:53:40.297Z,101002.47
2022-08-31T01:56:13.787Z,101006.03
2022-08-31T01:58:41.683Z,100907.84
2022-08-31T02:01:33.581Z,101007.22
2022-08-31T02:04:00.471Z,101009.22
2022-08-31T02:06:28.192Z,100995.50
2022-08-31T02:08:55.906Z,101001.75
2022-08-31T02:11:24.955Z,101014.09
2022-08-31T02:13:52.686Z,101019.59
2022-08-31T02:16:20.445Z,101010.66
2022-08-31T02:18:48.218Z,101006.75
2022-08-31T02:21:15.947Z,101010.19
2022-08-31T02:23:43.693Z,101017.50
2022-08-31T02:26:12.606Z,101016.53
2022-08-31T02:28:41.881Z,100978.25
2022-08-31T02:31:09.647Z,101011.38
2022-08-31T02:33:37.402Z,101012.47
2022-08-31T02:36:05.502Z,101014.28
2022-08-31T02:38:33.754Z,101008.19
2022-08-31T02:41:02.331Z,101007.31
2022-08-31T02:43:30.151Z,101004.75
2022-08-31T02:45:59.243Z,101003.06
2022-08-31T02:48:26.992Z,100991.81
2022-08-31T02:50:54.758Z,100923.31
2022-08-31T02:53:23.434Z,100950.25
2022-08-31T02:55:52.065Z,101006.47
2022-08-31T02:58:24.022Z,100995.59
2022-08-31T03:00:51.929Z,100992.91
2022-08-31T03:03:21.938Z,100998.41
2022-08-31T03:05:49.442Z,100998.66
2022-08-31T03:08:17.133Z,100996.06
2022-08-31T03:10:44.860Z,100996.06
2022-08-31T03:13:12.603Z,100989.00
2022-08-31T03:15:40.391Z,100998.00
2022-08-31T03:18:08.115Z,100996.31
2022-08-31T03:20:37.378Z,100998.13
2022-08-31T03:23:05.104Z,100952.63
2022-08-31T03:25:33.390Z,100977.00
2022-08-31T03:28:01.104Z,100997.41
2022-08-31T03:30:29.713Z,100999.25
2022-08-31T03:33:02.483Z,100995.69
2022-08-31T03:35:30.894Z,100998.50
2022-08-31T03:38:01.233Z,100997.66
2022-08-31T03:40:29.025Z,101000.34
2022-08-31T03:42:57.981Z,100996.78
2022-08-31T03:45:26.536Z,100941.19
2022-08-31T03:47:54.226Z,101003.16
2022-08-31T03:50:22.279Z,100997.91
2022-08-31T03:52:50.005Z,100998.03
2022-08-31T03:55:19.286Z,100999.84
2022-08-31T03:57:46.984Z,101001.66
2022-08-31T04:00:15.462Z,100997.28
2022-08-31T04:02:43.434Z,100952.38
2022-08-31T04:05:13.339Z,100999.22
2022-08-31T04:07:42.610Z,101002.75
2022-08-31T04:10:11.514Z,101007.63
2022-08-31T04:12:40.729Z,101013.75
2022-08-31T04:15:09.049Z,101020.09
2022-08-31T04:17:36.750Z,101009.59
2022-08-31T04:20:05.105Z,101018.50
2022-08-31T04:22:32.803Z,101015.91
2022-08-31T04:25:00.532Z,101017.66
2022-08-31T04:27:28.222Z,101006.16
2022-08-31T04:29:57.287Z,101004.47
2022-08-31T04:32:25.007Z,101013.47
2022-08-31T04:34:55.072Z,101015.31
2022-08-31T04:37:24.320Z,101018.13
2022-08-31T04:39:52.449Z,101017.25
2022-08-31T04:42:20.189Z,101018.25
2022-08-31T04:44:48.127Z,100942.97
2022-08-31T04:47:17.159Z,101017.38
2022-08-31T04:49:44.889Z,101020.06
2022-08-31T04:52:12.595Z,101024.69
2022-08-31T04:54:40.342Z,101019.31
2022-08-31T04:57:08.066Z,101020.19
2022-08-31T04:59:35.800Z,101019.31
2022-08-31T05:02:04.078Z,101022.75
2022-08-31T05:04:33.315Z,101021.03
2022-08-31T05:07:01.014Z,101024.69
2022-08-31T05:09:28.830Z,101022.00
2022-08-31T05:11:56.607Z,101032.75
2022-08-31T05:14:24.450Z,101031.78
2022-08-31T05:16:52.491Z,101032.84
2022-08-31T05:19:20.341Z,100992.31
2022-08-31T05:21:49.478Z,101039.22
2022-08-31T05:24:18.664Z,101033.97
2022-08-31T05:26:48.236Z,100975.31
2022-08-31T05:29:17.231Z,101046.41
2022-08-31T05:31:49.086Z,100952.06
2022-08-31T05:34:19.354Z,101037.13
2022-08-31T05:36:50.244Z,100984.44
2022-08-31T05:39:18.016Z,101049.44
2022-08-31T05:41:46.502Z,101051.06
2022-08-31T05:44:14.427Z,100992.41
2022-08-31T05:46:42.385Z,101056.22
2022-08-31T05:49:11.518Z,101053.94
2022-08-31T05:51:39.648Z,101007.59
2022-08-31T05:54:10.761Z,101072.84
2022-08-31T05:56:38.608Z,101061.59
2022-08-31T05:59:06.781Z,101070.47
2022-08-31T06:01:36.072Z,101073.25
2022-08-31T06:04:04.548Z,101048.75
2022-08-31T06:06:32.291Z,101074.53
2022-08-31T06:09:00.062Z,101077.72
2022-08-31T06:11:30.107Z,101029.28
2022-08-31T06:13:58.423Z,101080.81
2022-08-31T06:16:26.398Z,101084.00
2022-08-31T06:18:55.651Z,101082.66
2022-08-31T06:21:24.413Z,101082.44
2022-08-31T06:23:52.926Z,101086.59
2022-08-31T06:26:21.625Z,101068.13
2022-08-31T06:28:52.239Z,100989.25
2022-08-31T06:31:25.095Z,101084.66
2022-08-31T06:33:52.990Z,101077.22
2022-08-31T06:36:21.883Z,101079.66
2022-08-31T06:38:49.583Z,101085.72
2022-08-31T06:41:18.293Z,101086.44
2022-08-31T06:43:46.077Z,101090.72
2022-08-31T06:46:15.442Z,101036.63
2022-08-31T06:48:43.167Z,101053.38
2022-08-31T06:51:11.033Z,101098.44
2022-08-31T06:53:40.198Z,101099.28
2022-08-31T06:56:20.296Z,101104.28
2022-08-31T06:58:50.899Z,101099.78
2022-08-31T07:01:35.261Z,101092.34
2022-08-31T07:04:05.536Z,101101.88
2022-08-31T07:06:35.461Z,101045.94
2022-08-31T07:09:04.480Z,101106.00
2022-08-31T07:11:33.832Z,101053.66
2022-08-31T07:14:04.090Z,101094.53
2022-08-31T07:16:33.309Z,101099.06
2022-08-31T07:19:03.373Z,101102.72
2022-08-31T07:21:31.518Z,101103.81
2022-08-31T07:24:00.964Z,101099.41
2022-08-31T07:26:32.443Z,101102.84
2022-08-31T07:29:06.866Z,101070.28
2022-08-31T07:31:40.278Z,101105.19
2022-08-31T07:34:08.917Z,101113.72
2022-08-31T07:36:56.834Z,101110.69
2022-08-31T07:39:56.679Z,101108.97
2022-08-31T07:42:28.588Z,101061.91
2022-08-31T07:44:57.454Z,101110.72
2022-08-31T07:47:28.355Z,101116.81
2022-08-31T07:49:56.967Z,101108.84
2022-08-31T07:52:25.695Z,101057.72
2022-08-31T07:54:54.593Z,101106.75
2022-08-31T07:57:25.681Z,101123.91
2022-08-31T07:59:55.475Z,101106.16
2022-08-31T08:02:23.612Z,101119.59
2022-08-31T08:04:54.001Z,101117.16
2022-08-31T08:07:21.740Z,101135.28
2022-08-31T08:09:49.706Z,101132.72
2022-08-31T08:12:22.490Z,101130.03
2022-08-31T08:14:51.894Z,101134.31
2022-08-31T08:17:19.597Z,101122.53
2022-08-31T08:19:47.350Z,101086.72
2022-08-31T08:22:30.648Z,101132.13
2022-08-31T08:25:05.202Z,101140.91
2022-08-31T08:27:33.962Z,101131.13
2022-08-31T08:30:01.734Z,101138.22
2022-08-31T08:32:31.509Z,101136.13
2022-08-31T08:34:59.924Z,101133.44
2022-08-31T08:37:54.230Z,101134.19
2022-08-31T08:40:22.744Z,101086.22
2022-08-31T08:42:50.523Z,101136.75
2022-08-31T08:45:18.513Z,101140.06
2022-08-31T08:47:51.668Z,101128.59
2022-08-31T08:50:19.486Z,101144.38
2022-08-31T08:52:48.610Z,101134.19
2022-08-31T08:55:18.327Z,101131.25
2022-08-31T08:57:47.142Z,101140.09
2022-08-31T09:00:16.922Z,101127.50
2022-08-31T09:02:49.866Z,101118.16
2022-08-31T09:05:32.140Z,101067.41
2022-08-31T09:08:18.126Z,101141.03
2022-08-31T09:10:47.045Z,101139.09
2022-08-31T09:13:21.172Z,101146.91
2022-08-31T09:16:04.611Z,101107.03
2022-08-31T09:18:46.632Z,101089.31
2022-08-31T09:21:21.536Z,101139.66
2022-08-31T09:23:54.249Z,101106.03
2022-08-31T09:26:25.084Z,101139.28
2022-08-31T09:28:52.924Z,101128.53
2022-08-31T09:31:42.394Z,101134.16
2022-08-31T09:34:12.547Z,101072.03
2022-08-31T09:36:40.962Z,101124.81
2022-08-31T09:39:21.597Z,101078.34
2022-08-31T09:41:49.763Z,101063.81
2022-08-31T09:44:31.472Z,101133.13
2022-08-31T09:47:02.040Z,101112.81
2022-08-31T09:49:30.748Z,101128.97
2022-08-31T09:52:20.764Z,101127.00
2022-08-31T09:55:13.344Z,101126.16
2022-08-31T09:57:53.948Z,101133.84
2022-08-31T10:00:36.303Z,101085.41
2022-08-31T10:03:12.209Z,101089.09
2022-08-31T10:05:42.532Z,101121.72
2022-08-31T10:08:29.759Z,101081.59
2022-08-31T10:10:59.176Z,101125.88
2022-08-31T10:13:34.359Z,101073.13
2022-08-31T10:16:06.795Z,101080.00
2022-08-31T10:18:38.124Z,101066.91
2022-08-31T10:21:08.497Z,101068.47
2022-08-31T10:23:38.190Z,101126.66
2022-08-31T10:26:10.087Z,101112.34
2022-08-31T10:28:41.827Z,101072.13
2022-08-31T10:31:13.714Z,101107.09
2022-08-31T10:34:00.759Z,101114.78
2022-08-31T10:36:36.736Z,101099.72
2022-08-31T10:39:04.964Z,101117.34
2022-08-31T10:41:35.990Z,101100.44
2022-08-31T10:44:07.111Z,101112.78
2022-08-31T10:46:35.648Z,101111.97
2022-08-31T10:49:04.103Z,101064.44
2022-08-31T10:51:47.408Z,101109.13
2022-08-31T10:54:28.318Z,101105.56
2022-08-31T10:57:01.703Z,101111.84
2022-08-31T10:59:33.416Z,101103.75
2022-08-31T11:02:09.287Z,101029.81
2022-08-31T11:04:53.105Z,101106.56
2022-08-31T11:07:27.343Z,101095.06
2022-08-31T11:09:59.938Z,101109.41
2022-08-31T11:12:31.314Z,101091.44
2022-08-31T11:15:10.908Z,101025.00
2022-08-31T11:17:47.365Z,101104.97
2022-08-31T11:20:40.988Z,101103.25
2022-08-31T11:23:27.896Z,101099.56
2022-08-31T11:26:11.447Z,101090.19
2022-08-31T11:28:41.516Z,101094.56
2022-08-31T11:31:14.786Z,101097.53
2022-08-31T11:34:12.250Z,101095.56
2022-08-31T11:36:50.463Z,101094.00
2022-08-31T11:39:40.217Z,101092.13
2022-08-31T11:42:12.622Z,101086.75
2022-08-31T11:45:07.239Z,101089.44
2022-08-31T11:47:44.372Z,101090.31
2022-08-31T11:50:28.229Z,101080.66
2022-08-31T11:52:56.817Z,101077.81
2022-08-31T11:55:27.105Z,101079.41
2022-08-31T11:58:33.767Z,101075.00
2022-08-31T12:01:25.712Z,101074.13
2022-08-31T12:03:55.884Z,101074.13
2022-08-31T12:07:09.065Z,101062.22
2022-08-31T12:10:15.163Z,101066.53
2022-08-31T12:13:25.284Z,101068.09
2022-08-31T12:16:04.180Z,100989.03
2022-08-31T12:19:06.598Z,101064.13
2022-08-31T12:21:58.153Z,101062.44
2022-08-31T12:24:31.317Z,101058.88
2022-08-31T12:27:08.481Z,101062.44
2022-08-31T12:29:38.381Z,101058.03
2022-08-31T12:32:19.149Z,101012.31
2022-08-31T12:34:50.919Z,101060.47
2022-08-31T12:37:21.284Z,101051.25
2022-08-31T12:39:49.829Z,101050.13
2022-08-31T12:42:19.540Z,101050.13
2022-08-31T12:44:50.787Z,100992.63
2022-08-31T12:47:24.232Z,101045.34
2022-08-31T12:50:08.759Z,101041.50
2022-08-31T12:52:43.902Z,101046.63
2022-08-31T12:55:16.746Z,101043.13
2022-08-31T12:58:05.177Z,101043.69
2022-08-31T13:00:34.168Z,101004.41
2022-08-31T13:03:15.495Z,101036.31
2022-08-31T13:05:46.628Z,101030.66
2022-08-31T13:08:22.075Z,100980.13
2022-08-31T13:10:50.626Z,101030.25
2022-08-31T13:13:23.072Z,101031.97
2022-08-31T13:15:50.818Z,101038.09
2022-08-31T13:18:23.168Z,101028.06
2022-08-31T13:20:56.214Z,100988.84
2022-08-31T13:23:27.681Z,100973.22
2022-08-31T13:26:00.782Z,100978.19
2022-08-31T13:28:30.423Z,100994.84
2022-08-31T13:31:02.820Z,101020.81
2022-08-31T13:33:32.350Z,101020.81
2022-08-31T13:36:04.656Z,101013.72
2022-08-31T13:38:43.188Z,101009.19
2022-08-31T13:41:17.233Z,101011.34
2022-08-31T13:43:58.815Z,100998.75
2022-08-31T13:46:41.803Z,101007.38
2022-08-31T13:49:21.995Z,101008.09
2022-08-31T13:51:51.058Z,101005.56
2022-08-31T13:54:26.767Z,101009.16
2022-08-31T13:56:58.898Z,100976.75
2022-08-31T13:59:32.962Z,101004.22
2022-08-31T14:02:01.968Z,100948.63
2022-08-31T14:04:43.966Z,100999.25
2022-08-31T14:07:16.970Z,101001.41
2022-08-31T14:09:45.808Z,101005.56
2022-08-31T14:12:21.942Z,100985.06
2022-08-31T14:14:50.236Z,100982.66
2022-08-31T14:17:18.089Z,101000.56
2022-08-31T14:19:46.089Z,100992.47
2022-08-31T14:22:28.068Z,100999.63
2022-08-31T14:24:56.479Z,100996.94
2022-08-31T14:27:24.326Z,100927.34
2022-08-31T14:29:52.926Z,101003.75
2022-08-31T14:32:22.690Z,100986.69
2022-08-31T14:34:51.205Z,100985.84
2022-08-31T14:37:22.425Z,100976.75
2022-08-31T14:39:51.512Z,100979.03
2022-08-31T14:42:21.363Z,100956.97
2022-08-31T14:44:56.517Z,100976.78
2022-08-31T14:47:25.188Z,100979.75
2022-08-31T14:49:52.940Z,100938.22
2022-08-31T14:52:21.990Z,100968.38
2022-08-31T14:54:49.772Z,100851.06
2022-08-31T14:57:19.427Z,100922.75
2022-08-31T14:59:47.753Z,100966.41
2022-08-31T15:02:21.596Z,100964.25
2022-08-31T15:04:49.459Z,100960.28
2022-08-31T15:07:17.257Z,100956.44
2022-08-31T15:09:47.840Z,100962.56
2022-08-31T15:12:18.024Z,100960.25
2022-08-31T15:14:47.322Z,100956.59
2022-08-31T15:17:19.182Z,100913.22
2022-08-31T15:19:50.233Z,100963.41
2022-08-31T15:22:18.246Z,100956.59
2022-08-31T15:24:47.518Z,100957.03
2022-08-31T15:27:15.543Z,100965.84
2022-08-31T15:29:43.458Z,100954.03
2022-08-31T15:32:11.250Z,100956.44
2022-08-31T15:34:39.264Z,100950.31
2022-08-31T15:37:07.700Z,100959.56
2022-08-31T15:39:36.589Z,100922.72
2022-08-31T15:42:09.390Z,100964.25
2022-08-31T15:44:37.245Z,100955.41
2022-08-31T15:47:22.353Z,100958.84
2022-08-31T15:49:51.127Z,100954.97
2022-08-31T15:52:19.817Z,100895.69
2022-08-31T15:54:48.545Z,100901.94
2022-08-31T15:57:17.658Z,100943.00
2022-08-31T15:59:46.031Z,100940.84
2022-08-31T16:02:14.717Z,100951.53
2022-08-31T16:04:43.455Z,100888.56
2022-08-31T16:07:11.322Z,100937.84
2022-08-31T16:09:40.880Z,100907.31
2022-08-31T16:12:12.080Z,100899.06
2022-08-31T16:14:44.521Z,100937.94
2022-08-31T16:17:12.371Z,100938.81
2022-08-31T16:19:40.761Z,100937.50
2022-08-31T16:22:08.871Z,100935.66
2022-08-31T16:24:37.181Z,100936.53
2022-08-31T16:27:06.432Z,100934.50
2022-08-31T16:29:34.332Z,100869.47
2022-08-31T16:32:03.876Z,100929.09
2022-08-31T16:34:31.769Z,100923.69
2022-08-31T16:37:01.114Z,100919.00
2022-08-31T16:39:28.988Z,100928.69
2022-08-31T16:44:20.326Z,100933.09
2022-08-31T16:46:48.442Z,100925.69
2022-08-31T16:49:36.024Z,100927.94
2022-08-31T16:52:06.120Z,100928.50
2022-08-31T16:54:34.120Z,100876.47
2022-08-31T16:57:02.033Z,100932.44
2022-08-31T16:59:30.273Z,100875.59
2022-08-31T17:01:58.405Z,100920.34
2022-08-31T17:07:16.287Z,100864.69
2022-08-31T17:09:44.149Z,100930.44
2022-08-31T17:12:13.806Z,100921.47
2022-08-31T17:14:46.559Z,100934.84
2022-08-31T17:17:15.612Z,100936.56
2022-08-31T17:19:45.238Z,100909.69
2022-08-31T17:22:21.339Z,100934.84
2022-08-31T17:24:50.464Z,100940.13
2022-08-31T17:27:20.383Z,100860.31
2022-08-31T17:29:49.961Z,100939.88
2022-08-31T17:32:19.994Z,100940.88
2022-08-31T17:34:51.620Z,100943.88
2022-08-31T17:37:25.195Z,100895.56
2022-08-31T17:39:53.158Z,100944.22
2022-08-31T17:42:21.218Z,100946.78
2022-08-31T17:44:50.375Z,100953.78
2022-08-31T17:47:18.250Z,100958.06
2022-08-31T17:49:46.806Z,100958.50
2022-08-31T17:52:16.106Z,100962.81
2022-08-31T17:54:45.365Z,100957.25
2022-08-31T17:57:14.056Z,100954.84
2022-08-31T17:59:42.808Z,100958.13
2022-08-31T18:02:11.511Z,100959.44
2022-08-31T18:04:39.511Z,100959.00
2022-08-31T18:07:07.817Z,100909.09
2022-08-31T18:09:40.374Z,100963.25
2022-08-31T18:12:08.447Z,100961.84
2022-08-31T18:14:38.123Z,100966.53
2022-08-31T18:17:08.234Z,100918.50
2022-08-31T18:19:36.400Z,100965.69
2022-08-31T18:22:04.396Z,100890.88
2022-08-31T18:24:34.187Z,100967.09
2022-08-31T18:27:04.311Z,100971.97
2022-08-31T18:29:34.060Z,100937.38
2022-08-31T18:32:04.020Z,100929.44
2022-08-31T18:34:32.037Z,100985.59
2022-08-31T18:36:59.949Z,100979.75
2022-08-31T18:39:50.659Z,100882.06
2022-08-31T18:42:32.702Z,100981.03
2022-08-31T18:45:19.835Z,100989.41
2022-08-31T18:48:07.249Z,100983.44
2022-08-31T18:50:37.166Z,100990.97
2022-08-31T18:53:11.142Z,101000.19
2022-08-31T18:55:43.527Z,100996.94
2022-08-31T18:58:12.841Z,101000.56
2022-08-31T19:00:40.915Z,100996.44
2022-08-31T19:03:08.817Z,100999.28
2022-08-31T19:05:39.374Z,100998.69
2022-08-31T19:08:07.198Z,101006.25
2022-08-31T19:10:35.846Z,100986.59
2022-08-31T19:13:07.603Z,101003.97
2022-08-31T19:15:40.140Z,100972.63
2022-08-31T19:18:08.080Z,101011.59
2022-08-31T19:20:36.328Z,100947.69
2022-08-31T19:23:04.176Z,101008.44
2022-08-31T19:25:32.611Z,101015.84
2022-08-31T19:28:01.747Z,101008.03
2022-08-31T19:30:29.869Z,100943.22
2022-08-31T19:32:59.322Z,101008.31
2022-08-31T19:35:27.466Z,101018.38
2022-08-31T19:37:56.338Z,101014.13
2022-08-31T19:40:42.984Z,101009.84
2022-08-31T19:46:16.037Z,101013.91
2022-08-31T19:48:45.641Z,100980.84
2022-08-31T19:51:14.294Z,101004.69
2022-08-31T19:53:45.172Z,101016.19
2022-08-31T19:56:14.749Z,101020.88
2022-08-31T19:58:42.927Z,101018.44
2022-08-31T20:01:11.402Z,101023.09
2022-08-31T20:03:39.177Z,101023.09
2022-08-31T20:06:09.564Z,101023.22
2022-08-31T20:08:37.697Z,101014.94
2022-08-31T20:11:07.210Z,101025.47
2022-08-31T20:13:35.121Z,101023.72
2022-08-31T20:16:04.699Z,101020.06
2022-08-31T20:18:32.624Z,101019.47
2022-08-31T20:21:01.064Z,101024.72
2022-08-31T20:23:30.795Z,101032.97
2022-08-31T20:25:58.812Z,101028.69
2022-08-31T20:28:27.591Z,101023.44
2022-08-31T20:31:00.123Z,101022.72
2022-08-31T20:33:28.264Z,100967.59
2022-08-31T20:35:56.017Z,101025.53
2022-08-31T20:38:23.852Z,101023.09
2022-08-31T20:40:52.943Z,101024.94
2022-08-31T20:43:21.413Z,101033.16
2022-08-31T20:45:49.412Z,101028.03
2022-08-31T20:48:34.782Z,101028.16
2022-08-31T20:51:15.940Z,101027.47
2022-08-31T20:53:44.506Z,101033.97
2022-08-31T20:56:14.744Z,101035.94
2022-08-31T20:58:45.097Z,101036.78
2022-08-31T21:01:13.682Z,100989.06
2022-08-31T21:03:41.745Z,101038.31
2022-08-31T21:06:11.626Z,101008.78
2022-08-31T21:08:39.353Z,101042.41
2022-08-31T21:11:15.810Z,101032.84
2022-08-31T21:13:44.681Z,101031.88
2022-08-31T21:16:12.511Z,101034.69
2022-08-31T21:18:40.677Z,101031.53
2022-08-31T21:21:23.362Z,101037.53
2022-08-31T21:23:53.374Z,101040.47
2022-08-31T21:26:28.930Z,101039.00
2022-08-31T21:29:08.061Z,101034.63
2022-08-31T21:32:03.403Z,101044.53
2022-08-31T21:34:49.331Z,101041.13
2022-08-31T21:37:28.486Z,101039.53
2022-08-31T21:40:34.057Z,100995.19
2022-08-31T21:44:00.319Z,101045.19
2022-08-31T21:46:51.624Z,100976.63
2022-08-31T21:49:36.550Z,101005.13
2022-08-31T21:52:23.769Z,101044.72
2022-08-31T21:54:56.528Z,101039.47
2022-08-31T21:57:38.750Z,101055.63
2022-08-31T22:01:09.781Z,101060.25
2022-08-31T22:03:59.378Z,101056.97
2022-08-31T22:09:44.436Z,101014.59
2022-08-31T22:12:41.311Z,101061.91
2022-08-31T22:15:11.333Z,101065.56
2022-08-31T22:18:01.403Z,101068.63
2022-08-31T22:20:31.712Z,101066.06
2022-08-31T22:22:59.740Z,101070.50
2022-08-31T22:25:27.625Z,101069.75
2022-08-31T22:27:55.364Z,101076.13
2022-08-31T22:30:24.008Z,101071.72
2022-08-31T22:32:53.894Z,101068.31
2022-08-31T22:35:22.243Z,101068.44
2022-08-31T22:37:50.043Z,101070.25
2022-08-31T22:40:20.322Z,101058.16
2022-08-31T22:42:49.029Z,100992.38
2022-08-31T22:45:17.178Z,101067.81
2022-08-31T22:47:49.813Z,101067.94
2022-08-31T22:50:19.636Z,101064.38
2022-08-31T22:52:47.507Z,101067.22
2022-08-31T22:55:15.271Z,101071.88
2022-08-31T22:57:43.001Z,101067.59
2022-08-31T23:00:13.190Z,101072.97
2022-08-31T23:02:45.032Z,101067.72
2022-08-31T23:05:14.128Z,101038.41
2022-08-31T23:07:43.213Z,101066.13
2022-08-31T23:10:11.088Z,101065.28
2022-08-31T23:12:38.787Z,101078.03
2022-08-31T23:15:10.487Z,101071.78
2022-08-31T23:17:39.287Z,101072.91
2022-08-31T23:20:07.728Z,101063.22
2022-08-31T23:22:35.561Z,101068.84
2022-08-31T23:25:05.821Z,101066.16
2022-08-31T23:27:33.511Z,101057.50
2022-08-31T23:30:01.385Z,101063.00
2022-08-31T23:32:29.173Z,101060.31
2022-08-31T23:34:58.056Z,100977.41
2022-08-31T23:37:26.080Z,101056.88
2022-08-31T23:39:54.371Z,101054.31
2022-08-31T23:42:23.610Z,101057.00
2022-08-31T23:44:51.387Z,101057.38
2022-08-31T23:47:21.367Z,101059.31
2022-08-31T23:49:51.142Z,101056.13
2022-08-31T23:52:21.390Z,101060.78
2022-08-31T23:54:49.817Z,100969.97
2022-08-31T23:57:32.358Z,101066.03
